createdAt,value
2019-03-29T00:00:03.141Z,48.58
2019-03-29T00:01:03.323Z,58.84
2019-03-29T00:02:03.495Z,44.92
2019-03-29T00:03:03.673Z,48.58
2019-03-29T00:04:03.862Z,48.10
2019-03-29T00:05:04.040Z,44.68
2019-03-29T00:06:04.225Z,67.63
2019-03-29T00:07:04.390Z,53.71
2019-03-29T00:08:04.573Z,55.91
2019-03-29T00:09:04.740Z,52.49
2019-03-29T00:10:04.916Z,55.66
2019-03-29T00:11:05.093Z,48.10
2019-03-29T00:12:05.266Z,51.27
2019-03-29T00:13:05.445Z,58.35
2019-03-29T00:14:05.628Z,56.15
2019-03-29T00:15:05.797Z,55.66
2019-03-29T00:16:05.970Z,46.39
2019-03-29T00:17:06.171Z,44.19
2019-03-29T00:18:06.320Z,48.83
2019-03-29T00:19:06.492Z,47.61
2019-03-29T00:20:06.668Z,44.43
2019-03-29T00:21:06.838Z,61.77
2019-03-29T00:22:07.019Z,49.56
2019-03-29T00:23:07.186Z,53.71
2019-03-29T00:24:07.460Z,63.23
2019-03-29T00:25:07.540Z,46.63
2019-03-29T00:26:07.720Z,43.21
2019-03-29T00:27:07.900Z,53.47
2019-03-29T00:28:08.080Z,47.36
2019-03-29T00:29:08.253Z,62.01
2019-03-29T00:30:08.414Z,47.85
2019-03-29T00:31:08.587Z,42.72
2019-03-29T00:32:08.767Z,45.17
2019-03-29T00:33:08.942Z,48.10
2019-03-29T00:34:09.116Z,41.75
2019-03-29T00:35:09.290Z,54.20
2019-03-29T00:36:09.477Z,42.24
2019-03-29T00:37:09.651Z,46.39
2019-03-29T00:38:09.833Z,43.21
2019-03-29T00:39:10.004Z,44.43
2019-03-29T00:40:10.174Z,42.72
2019-03-29T00:41:10.346Z,45.41
2019-03-29T00:42:10.539Z,43.95
2019-03-29T00:43:10.739Z,44.19
2019-03-29T00:44:10.876Z,45.17
2019-03-29T00:45:11.050Z,57.86
2019-03-29T00:46:11.366Z,45.65
2019-03-29T00:47:11.399Z,44.92
2019-03-29T00:48:11.571Z,44.68
2019-03-29T00:49:11.747Z,56.40
2019-03-29T00:50:11.921Z,48.10
2019-03-29T00:51:12.100Z,41.99
2019-03-29T00:52:12.274Z,58.59
2019-03-29T00:53:12.452Z,48.34
2019-03-29T00:54:12.625Z,43.95
2019-03-29T00:55:12.798Z,54.44
2019-03-29T00:56:13.123Z,54.44
2019-03-29T00:57:13.162Z,44.92
2019-03-29T00:58:13.320Z,56.88
2019-03-29T00:59:14.297Z,46.63
2019-03-29T01:00:13.684Z,47.36
2019-03-29T01:01:13.846Z,44.92
2019-03-29T01:02:14.018Z,44.19
2019-03-29T01:03:14.196Z,42.97
2019-03-29T01:04:14.373Z,42.72
2019-03-29T01:05:14.549Z,50.05
2019-03-29T01:07:14.899Z,41.75
2019-03-29T01:08:15.066Z,41.99
2019-03-29T01:09:15.240Z,42.24
2019-03-29T01:10:15.421Z,42.72
2019-03-29T01:11:15.599Z,46.63
2019-03-29T01:13:15.933Z,50.78
2019-03-29T01:14:16.829Z,55.18
2019-03-29T01:15:16.282Z,57.13
2019-03-29T01:16:16.457Z,44.43
2019-03-29T01:17:16.633Z,42.97
2019-03-29T01:18:16.807Z,48.58
2019-03-29T01:19:16.998Z,48.83
2019-03-29T01:20:17.160Z,62.50
2019-03-29T01:21:17.331Z,43.21
2019-03-29T01:22:17.511Z,43.46
2019-03-29T01:23:17.682Z,44.92
2019-03-29T01:24:17.858Z,45.41
2019-03-29T01:25:18.029Z,45.65
2019-03-29T01:26:18.206Z,42.72
2019-03-29T01:27:19.113Z,52.98
2019-03-29T01:28:18.562Z,52.00
2019-03-29T01:29:18.728Z,50.05
2019-03-29T01:30:18.913Z,51.76
2019-03-29T01:31:19.083Z,42.97
2019-03-29T01:32:19.261Z,43.46
2019-03-29T01:33:19.432Z,47.36
2019-03-29T01:34:20.332Z,45.41
2019-03-29T01:35:19.772Z,49.56
2019-03-29T01:36:19.941Z,43.95
2019-03-29T01:37:20.142Z,42.72
2019-03-29T01:38:22.202Z,43.46
2019-03-29T01:39:20.457Z,48.34
2019-03-29T01:40:20.632Z,44.43
2019-03-29T01:41:20.810Z,50.05
2019-03-29T01:42:20.990Z,41.99
2019-03-29T01:43:21.165Z,42.72
2019-03-29T01:44:21.341Z,43.21
2019-03-29T01:45:21.515Z,45.17
2019-03-29T01:46:21.692Z,42.48
2019-03-29T01:47:21.868Z,53.71
2019-03-29T01:48:22.415Z,59.33
2019-03-29T01:49:22.216Z,51.51
2019-03-29T01:50:22.393Z,43.95
2019-03-29T01:51:22.575Z,42.97
2019-03-29T01:52:22.750Z,42.48
2019-03-29T01:53:22.930Z,42.24
2019-03-29T01:54:23.101Z,42.72
2019-03-29T01:55:23.328Z,42.24
2019-03-29T01:56:23.454Z,42.24
2019-03-29T01:57:23.634Z,42.24
2019-03-29T01:58:25.014Z,42.48
2019-03-29T01:59:23.982Z,47.61
2019-03-29T02:00:24.159Z,43.70
2019-03-29T02:01:24.331Z,42.72
2019-03-29T02:02:24.509Z,58.84
2019-03-29T02:03:24.686Z,41.99
2019-03-29T02:04:24.867Z,42.48
2019-03-29T02:05:25.034Z,42.72
2019-03-29T02:06:25.210Z,59.08
2019-03-29T02:07:25.389Z,41.99
2019-03-29T02:08:35.548Z,43.95
2019-03-29T02:09:25.829Z,43.21
2019-03-29T02:10:25.905Z,42.72
2019-03-29T02:11:26.089Z,42.97
2019-03-29T02:12:26.258Z,42.24
2019-03-29T02:13:26.435Z,54.93
2019-03-29T02:14:26.612Z,42.72
2019-03-29T02:15:26.787Z,43.70
2019-03-29T02:16:26.971Z,46.14
2019-03-29T02:17:27.135Z,43.46
2019-03-29T02:21:07.830Z,47.12
2019-03-29T02:22:09.018Z,47.61
2019-03-29T02:23:08.196Z,44.68
2019-03-29T02:24:08.353Z,51.51
2019-03-29T02:25:08.531Z,50.54
2019-03-29T02:26:08.946Z,44.92
2019-03-29T02:27:08.879Z,44.92
2019-03-29T02:28:09.054Z,43.95
2019-03-29T02:29:09.268Z,47.36
2019-03-29T02:30:09.407Z,56.15
2019-03-29T02:31:09.586Z,49.32
2019-03-29T02:32:09.754Z,49.07
2019-03-29T02:33:09.941Z,52.73
2019-03-29T02:34:10.119Z,44.92
2019-03-29T02:35:11.474Z,56.64
2019-03-29T02:36:10.452Z,44.68
2019-03-29T02:37:10.655Z,48.83
2019-03-29T02:38:10.807Z,48.58
2019-03-29T02:39:10.980Z,56.15
2019-03-29T02:40:11.151Z,50.05
2019-03-29T02:41:12.237Z,57.37
2019-03-29T02:42:11.528Z,47.61
2019-03-29T02:43:11.704Z,45.41
2019-03-29T02:44:11.882Z,42.97
2019-03-29T02:45:12.067Z,51.27
2019-03-29T02:46:12.232Z,43.95
2019-03-29T02:47:12.441Z,42.97
2019-03-29T02:48:12.575Z,43.46
2019-03-29T02:49:13.241Z,43.70
2019-03-29T02:50:12.924Z,46.88
2019-03-29T02:51:13.102Z,44.43
2019-03-29T02:52:13.275Z,52.49
2019-03-29T02:53:13.554Z,43.46
2019-03-29T02:54:13.628Z,52.98
2019-03-29T02:55:13.821Z,53.22
2019-03-29T02:56:13.975Z,43.70
2019-03-29T02:57:14.149Z,43.21
2019-03-29T02:58:14.344Z,42.72
2019-03-29T02:59:14.505Z,49.56
2019-03-29T03:00:14.684Z,50.05
2019-03-29T03:01:14.851Z,43.70
2019-03-29T03:02:15.028Z,43.95
2019-03-29T03:03:15.200Z,46.88
2019-03-29T03:04:15.375Z,43.70
2019-03-29T03:05:15.551Z,43.46
2019-03-29T03:06:15.734Z,59.33
2019-03-29T03:07:15.930Z,70.56
2019-03-29T03:08:16.077Z,70.07
2019-03-29T03:09:16.288Z,44.92
2019-03-29T03:10:16.432Z,58.35
2019-03-29T03:11:16.602Z,50.54
2019-03-29T03:12:16.779Z,50.54
2019-03-29T03:13:16.958Z,46.39
2019-03-29T03:14:17.243Z,46.39
2019-03-29T03:15:17.301Z,61.77
2019-03-29T03:16:17.477Z,43.70
2019-03-29T03:17:17.656Z,43.21
2019-03-29T03:18:17.832Z,44.43
2019-03-29T03:19:18.005Z,47.85
2019-03-29T03:20:18.197Z,47.36
2019-03-29T03:21:18.356Z,45.65
2019-03-29T03:22:18.528Z,60.06
2019-03-29T03:23:18.705Z,51.27
2019-03-29T03:24:18.886Z,47.12
2019-03-29T03:25:19.056Z,47.12
2019-03-29T03:26:19.228Z,61.52
2019-03-29T03:27:19.405Z,64.45
2019-03-29T03:28:19.578Z,69.34
2019-03-29T03:29:19.753Z,67.14
2019-03-29T03:30:19.937Z,55.66
2019-03-29T03:31:20.103Z,54.20
2019-03-29T03:32:20.292Z,53.47
2019-03-29T03:33:20.481Z,59.81
2019-03-29T03:34:20.633Z,53.22
2019-03-29T03:35:20.806Z,58.35
2019-03-29T03:36:20.977Z,47.61
2019-03-29T03:37:21.155Z,46.14
2019-03-29T03:38:21.327Z,45.65
2019-03-29T03:39:31.447Z,49.56
2019-03-29T03:40:21.682Z,45.65
2019-03-29T03:41:21.850Z,51.03
2019-03-29T03:42:22.031Z,65.19
2019-03-29T03:43:22.200Z,52.73
2019-03-29T03:44:22.375Z,67.87
2019-03-29T03:45:22.557Z,60.55
2019-03-29T03:46:22.736Z,47.12
2019-03-29T03:47:22.912Z,44.92
2019-03-29T03:48:23.077Z,47.36
2019-03-29T03:49:23.262Z,55.42
2019-03-29T03:50:23.428Z,48.34
2019-03-29T03:51:23.605Z,52.25
2019-03-29T03:52:23.779Z,46.39
2019-03-29T03:53:23.961Z,56.15
2019-03-29T03:54:24.153Z,49.07
2019-03-29T03:55:24.307Z,46.88
2019-03-29T03:56:24.479Z,61.04
2019-03-29T03:57:24.653Z,51.27
2019-03-29T03:58:24.828Z,55.66
2019-03-29T03:59:25.008Z,48.10
2019-03-29T04:00:25.184Z,55.91
2019-03-29T04:01:25.366Z,56.88
2019-03-29T04:02:25.547Z,51.03
2019-03-29T04:03:25.729Z,50.05
2019-03-29T04:04:25.906Z,50.29
2019-03-29T04:05:26.070Z,54.20
2019-03-29T04:06:26.238Z,54.44
2019-03-29T04:07:26.414Z,51.51
2019-03-29T04:08:26.592Z,47.12
2019-03-29T04:09:26.768Z,57.62
2019-03-29T04:10:26.939Z,62.50
2019-03-29T04:11:27.112Z,60.55
2019-03-29T04:12:27.290Z,54.44
2019-03-29T04:13:27.487Z,49.32
2019-03-29T04:14:27.645Z,48.83
2019-03-29T04:15:27.823Z,60.30
2019-03-29T04:16:27.990Z,55.91
2019-03-29T04:17:28.165Z,48.10
2019-03-29T04:18:28.338Z,55.42
2019-03-29T04:19:28.511Z,47.85
2019-03-29T04:20:29.272Z,47.12
2019-03-29T04:21:28.811Z,46.88
2019-03-29T04:22:29.012Z,51.27
2019-03-29T04:23:29.157Z,63.48
2019-03-29T04:24:29.333Z,57.62
2019-03-29T04:25:29.509Z,60.06
2019-03-29T04:26:29.686Z,48.83
2019-03-29T04:27:29.869Z,48.34
2019-03-29T04:28:30.032Z,57.37
2019-03-29T04:29:30.217Z,62.26
2019-03-29T04:30:30.381Z,63.72
2019-03-29T04:31:30.559Z,52.49
2019-03-29T04:32:30.840Z,54.93
2019-03-29T04:33:30.904Z,73.97
2019-03-29T04:34:31.099Z,62.99
2019-03-29T04:35:31.257Z,61.52
2019-03-29T04:36:31.434Z,60.30
2019-03-29T04:37:31.614Z,63.23
2019-03-29T04:38:31.783Z,52.73
2019-03-29T04:39:31.960Z,55.18
2019-03-29T04:40:32.137Z,60.55
2019-03-29T04:41:32.313Z,52.49
2019-03-29T04:42:32.486Z,61.28
2019-03-29T04:43:32.661Z,50.54
2019-03-29T04:44:32.832Z,57.37
2019-03-29T04:45:33.006Z,53.71
2019-03-29T04:46:33.183Z,53.96
2019-03-29T04:47:33.376Z,62.50
2019-03-29T04:48:33.599Z,61.77
2019-03-29T04:49:33.708Z,63.48
2019-03-29T04:50:33.879Z,66.89
2019-03-29T04:51:34.055Z,59.33
2019-03-29T04:52:34.232Z,65.92
2019-03-29T04:53:34.405Z,58.84
2019-03-29T04:54:34.589Z,61.77
2019-03-29T04:55:34.755Z,60.79
2019-03-29T04:56:34.945Z,63.48
2019-03-29T04:57:35.100Z,64.21
2019-03-29T04:58:35.279Z,70.80
2019-03-29T04:59:35.459Z,60.79
2019-03-29T05:00:35.633Z,68.60
2019-03-29T05:01:35.804Z,51.51
2019-03-29T05:02:35.992Z,56.15
2019-03-29T05:03:36.155Z,60.30
2019-03-29T05:04:36.325Z,84.72
2019-03-29T05:05:36.509Z,75.20
2019-03-29T05:06:36.679Z,74.95
2019-03-29T05:07:37.310Z,58.84
2019-03-29T05:08:37.030Z,59.81
2019-03-29T05:09:37.203Z,67.14
2019-03-29T05:10:37.377Z,62.26
2019-03-29T05:11:37.556Z,66.16
2019-03-29T05:12:37.729Z,59.81
2019-03-29T05:13:37.905Z,61.52
2019-03-29T05:14:38.077Z,58.59
2019-03-29T05:15:38.252Z,68.60
2019-03-29T05:16:38.431Z,68.36
2019-03-29T05:17:38.601Z,65.43
2019-03-29T05:18:38.776Z,67.38
2019-03-29T05:19:38.952Z,68.12
2019-03-29T05:20:39.122Z,72.75
2019-03-29T05:21:39.300Z,70.80
2019-03-29T05:22:39.475Z,63.48
2019-03-29T05:23:39.648Z,66.41
2019-03-29T05:24:39.825Z,67.63
2019-03-29T05:25:40.001Z,69.09
2019-03-29T05:26:40.174Z,66.89
2019-03-29T05:27:40.351Z,66.65
2019-03-29T05:28:40.524Z,62.74
2019-03-29T05:29:40.698Z,74.95
2019-03-29T05:30:40.874Z,65.67
2019-03-29T05:31:41.048Z,77.64
2019-03-29T05:32:41.223Z,72.02
2019-03-29T05:33:41.398Z,84.23
2019-03-29T05:34:41.577Z,74.46
2019-03-29T05:35:41.748Z,71.78
2019-03-29T05:36:41.933Z,76.42
2019-03-29T05:37:42.100Z,72.75
2019-03-29T05:38:42.269Z,83.01
2019-03-29T05:39:42.445Z,63.96
2019-03-29T05:40:42.624Z,69.09
2019-03-29T05:41:42.791Z,72.51
2019-03-29T05:42:42.967Z,68.60
2019-03-29T05:43:43.146Z,68.60
2019-03-29T05:44:43.317Z,69.82
2019-03-29T05:45:43.490Z,70.80
2019-03-29T05:46:43.667Z,70.80
2019-03-29T05:47:43.847Z,68.60
2019-03-29T05:48:44.019Z,68.36
2019-03-29T05:49:44.791Z,70.56
2019-03-29T05:50:44.331Z,95.70
2019-03-29T05:51:44.507Z,73.97
2019-03-29T05:52:44.685Z,76.90
2019-03-29T05:53:44.856Z,70.80
2019-03-29T05:54:45.033Z,70.56
2019-03-29T05:55:48.212Z,66.65
2019-03-29T05:56:45.379Z,69.58
2019-03-29T05:57:45.555Z,77.15
2019-03-29T05:58:45.732Z,72.75
2019-03-29T05:59:45.903Z,76.66
2019-03-29T06:00:46.079Z,77.39
2019-03-29T06:01:46.261Z,79.59
2019-03-29T06:02:46.433Z,78.86
2019-03-29T06:03:46.609Z,79.10
2019-03-29T06:04:46.784Z,78.61
2019-03-29T06:05:46.954Z,79.59
2019-03-29T06:06:47.124Z,79.83
2019-03-29T06:07:47.321Z,70.31
2019-03-29T06:08:47.475Z,83.01
2019-03-29T06:09:47.655Z,74.95
2019-03-29T06:10:49.574Z,68.12
2019-03-29T06:11:48.008Z,67.38
2019-03-29T06:12:48.178Z,78.61
2019-03-29T06:13:48.351Z,80.81
2019-03-29T06:14:48.531Z,74.22
2019-03-29T06:15:48.707Z,70.31
2019-03-29T06:16:48.884Z,76.42
2019-03-29T06:17:49.464Z,73.24
2019-03-29T06:18:49.245Z,67.63
2019-03-29T06:19:49.420Z,65.43
2019-03-29T06:20:49.590Z,67.14
2019-03-29T06:21:49.770Z,63.96
2019-03-29T06:22:49.949Z,70.80
2019-03-29T06:23:50.129Z,70.56
2019-03-29T06:24:50.311Z,63.96
2019-03-29T06:25:50.487Z,66.65
2019-03-29T06:26:50.671Z,58.84
2019-03-29T06:27:50.848Z,64.70
2019-03-29T06:28:51.020Z,68.60
2019-03-29T06:29:51.198Z,66.16
2019-03-29T06:30:51.378Z,69.82
2019-03-29T06:31:51.555Z,65.92
2019-03-29T06:32:51.732Z,65.92
2019-03-29T06:33:51.912Z,63.72
2019-03-29T06:34:52.095Z,73.97
2019-03-29T06:35:52.264Z,65.92
2019-03-29T06:36:53.295Z,57.37
2019-03-29T06:37:52.597Z,63.96
2019-03-29T06:39:52.963Z,66.65
2019-03-29T06:41:02.667Z,66.65
2019-03-29T06:41:53.315Z,63.48
2019-03-29T06:42:53.505Z,67.87
2019-03-29T06:43:54.302Z,62.74
2019-03-29T06:44:53.864Z,77.15
2019-03-29T06:45:54.032Z,67.87
2019-03-29T06:46:54.209Z,67.63
2019-03-29T06:47:54.386Z,66.41
2019-03-29T06:48:54.566Z,68.36
2019-03-29T06:49:54.750Z,61.04
2019-03-29T06:50:54.918Z,68.12
2019-03-29T06:51:55.101Z,67.14
2019-03-29T06:52:55.273Z,63.72
2019-03-29T06:53:55.459Z,64.45
2019-03-29T06:54:55.632Z,69.34
2019-03-29T06:55:59.101Z,75.44
2019-03-29T06:56:55.980Z,65.92
2019-03-29T06:57:56.165Z,66.16
2019-03-29T06:58:56.337Z,65.19
2019-03-29T06:59:56.513Z,74.71
2019-03-29T07:00:56.689Z,72.51
2019-03-29T07:01:56.866Z,62.26
2019-03-29T07:02:57.049Z,61.04
2019-03-29T07:03:57.221Z,60.79
2019-03-29T07:04:57.396Z,65.43
2019-03-29T07:05:57.573Z,66.65
2019-03-29T07:06:57.796Z,64.45
2019-03-29T07:07:57.935Z,67.38
2019-03-29T07:08:58.111Z,68.85
2019-03-29T07:09:58.288Z,64.45
2019-03-29T07:10:58.467Z,65.43
2019-03-29T07:11:58.642Z,64.45
2019-03-29T07:12:58.825Z,63.72
2019-03-29T07:13:59.000Z,78.37
2019-03-29T07:14:59.171Z,72.75
2019-03-29T07:15:59.350Z,65.92
2019-03-29T07:16:59.528Z,65.92
2019-03-29T07:17:59.703Z,65.19
2019-03-29T07:18:59.885Z,67.38
2019-03-29T07:20:00.151Z,70.31
2019-03-29T07:21:00.250Z,74.46
2019-03-29T07:22:00.421Z,67.63
2019-03-29T07:23:00.601Z,65.67
2019-03-29T07:24:00.779Z,70.07
2019-03-29T07:25:00.961Z,71.29
2019-03-29T07:26:01.144Z,63.72
2019-03-29T07:27:01.391Z,63.96
2019-03-29T07:28:01.524Z,63.72
2019-03-29T07:29:01.752Z,59.08
2019-03-29T07:30:01.849Z,66.65
2019-03-29T07:31:02.035Z,62.99
2019-03-29T07:32:02.214Z,61.28
2019-03-29T07:33:02.386Z,66.41
2019-03-29T07:34:02.575Z,62.26
2019-03-29T07:35:02.748Z,61.28
2019-03-29T07:36:02.951Z,62.74
2019-03-29T07:37:05.809Z,60.79
2019-03-29T07:38:03.293Z,66.65
2019-03-29T07:39:03.478Z,63.23
2019-03-29T07:40:03.666Z,68.12
2019-03-29T07:41:03.844Z,63.96
2019-03-29T07:42:04.031Z,63.96
2019-03-29T07:43:04.213Z,63.72
2019-03-29T07:44:04.400Z,69.58
2019-03-29T07:45:04.577Z,66.16
2019-03-29T07:46:04.777Z,61.77
2019-03-29T07:47:04.938Z,66.65
2019-03-29T07:48:05.123Z,62.01
2019-03-29T07:49:05.310Z,65.92
2019-03-29T07:50:05.509Z,65.92
2019-03-29T07:51:05.679Z,75.44
2019-03-29T07:52:05.861Z,70.31
2019-03-29T07:53:06.050Z,68.85
2019-03-29T07:54:06.229Z,61.28
2019-03-29T07:55:06.416Z,64.45
2019-03-29T07:56:06.598Z,67.38
2019-03-29T07:57:06.784Z,59.81
2019-03-29T07:58:06.973Z,63.48
2019-03-29T07:59:07.165Z,72.02
2019-03-29T08:00:07.342Z,66.89
2019-03-29T08:01:08.369Z,65.67
2019-03-29T08:02:07.743Z,61.04
2019-03-29T08:03:07.904Z,64.70
2019-03-29T08:04:08.088Z,65.67
2019-03-29T08:05:08.277Z,59.08
2019-03-29T08:06:08.463Z,59.81
2019-03-29T08:07:08.650Z,63.48
2019-03-29T08:08:22.697Z,65.92
2019-03-29T08:09:21.774Z,63.72
2019-03-29T08:10:09.262Z,64.94
2019-03-29T08:11:09.450Z,65.67
2019-03-29T08:12:09.647Z,73.00
2019-03-29T08:13:09.826Z,66.89
2019-03-29T08:14:10.026Z,63.72
2019-03-29T08:15:10.221Z,68.12
2019-03-29T08:16:10.380Z,70.80
2019-03-29T08:17:10.566Z,69.09
2019-03-29T08:18:10.752Z,64.94
2019-03-29T08:19:10.941Z,63.96
2019-03-29T08:20:37.588Z,63.72
2019-03-29T08:21:11.309Z,67.63
2019-03-29T08:22:11.497Z,65.43
2019-03-29T08:23:11.684Z,59.57
2019-03-29T08:24:12.014Z,77.88
2019-03-29T08:25:12.054Z,66.41
2019-03-29T08:26:12.234Z,61.77
2019-03-29T08:27:12.422Z,65.19
2019-03-29T08:28:12.604Z,61.04
2019-03-29T08:29:12.791Z,70.80
2019-03-29T08:30:12.984Z,63.23
2019-03-29T08:31:13.161Z,82.76
2019-03-29T08:32:13.334Z,66.41
2019-03-29T08:33:13.530Z,65.67
2019-03-29T08:34:13.702Z,64.21
2019-03-29T08:35:13.887Z,66.65
2019-03-29T08:36:14.070Z,64.70
2019-03-29T08:37:14.249Z,60.79
2019-03-29T08:38:14.450Z,66.16
2019-03-29T08:39:27.241Z,61.77
2019-03-29T08:40:14.799Z,67.14
2019-03-29T08:41:15.841Z,62.99
2019-03-29T08:42:18.417Z,68.12
2019-03-29T08:43:15.324Z,68.60
2019-03-29T08:44:15.509Z,68.85
2019-03-29T08:45:15.753Z,68.60
2019-03-29T08:46:15.871Z,59.81
2019-03-29T08:47:16.048Z,66.16
2019-03-29T08:48:16.255Z,67.63
2019-03-29T08:49:16.933Z,65.19
2019-03-29T08:50:16.617Z,66.65
2019-03-29T08:51:16.755Z,68.12
2019-03-29T08:52:16.932Z,63.23
2019-03-29T08:53:17.112Z,63.48
2019-03-29T08:54:17.300Z,61.52
2019-03-29T08:55:17.885Z,62.50
2019-03-29T08:56:17.647Z,59.08
2019-03-29T08:57:18.346Z,73.73
2019-03-29T08:58:18.024Z,64.94
2019-03-29T08:59:18.210Z,66.89
2019-03-29T09:00:18.400Z,66.41
2019-03-29T09:01:19.585Z,67.87
2019-03-29T09:02:18.750Z,71.29
2019-03-29T09:03:18.938Z,74.95
2019-03-29T09:04:21.684Z,64.70
2019-03-29T09:05:19.290Z,60.30
2019-03-29T09:06:19.502Z,60.79
2019-03-29T09:07:19.657Z,60.30
2019-03-29T09:08:19.953Z,61.28
2019-03-29T09:09:19.988Z,62.74
2019-03-29T09:10:20.167Z,76.17
2019-03-29T09:11:20.363Z,61.77
2019-03-29T09:12:21.351Z,71.29
2019-03-29T09:13:20.658Z,65.67
2019-03-29T09:14:20.845Z,59.81
2019-03-29T09:15:21.018Z,66.16
2019-03-29T09:16:21.199Z,62.74
2019-03-29T09:17:21.376Z,60.55
2019-03-29T09:18:21.557Z,60.55
2019-03-29T09:19:21.740Z,66.16
2019-03-29T09:20:21.948Z,68.36
2019-03-29T09:21:22.095Z,63.72
2019-03-29T09:22:22.281Z,62.01
2019-03-29T09:23:22.469Z,66.16
2019-03-29T09:24:22.747Z,70.80
2019-03-29T09:25:22.822Z,69.09
2019-03-29T09:26:23.002Z,66.89
2019-03-29T09:27:23.188Z,60.06
2019-03-29T09:28:24.361Z,61.77
2019-03-29T09:29:23.763Z,66.65
2019-03-29T09:30:24.181Z,65.43
2019-03-29T09:31:24.316Z,68.85
2019-03-29T09:32:24.048Z,71.53
2019-03-29T09:33:24.226Z,86.91
2019-03-29T09:34:24.442Z,79.83
2019-03-29T09:35:24.587Z,64.45
2019-03-29T09:36:24.768Z,68.85
2019-03-29T09:37:24.947Z,65.19
2019-03-29T09:38:25.130Z,62.01
2019-03-29T09:39:25.309Z,62.74
2019-03-29T09:40:25.493Z,65.92
2019-03-29T09:41:25.669Z,70.07
2019-03-29T09:42:29.413Z,66.41
2019-03-29T09:43:26.696Z,63.72
2019-03-29T09:44:26.362Z,61.04
2019-03-29T09:45:27.460Z,64.94
2019-03-29T09:46:26.559Z,59.81
2019-03-29T09:47:27.383Z,75.68
2019-03-29T09:48:28.057Z,69.82
2019-03-29T09:49:27.216Z,67.14
2019-03-29T09:50:27.438Z,61.28
2019-03-29T09:51:27.593Z,62.26
2019-03-29T09:52:27.702Z,63.72
2019-03-29T09:53:27.881Z,75.20
2019-03-29T09:54:28.142Z,70.80
2019-03-29T09:55:28.245Z,62.74
2019-03-29T09:56:38.865Z,61.28
2019-03-29T09:57:37.366Z,67.87
2019-03-29T09:58:28.737Z,67.87
2019-03-29T09:59:28.872Z,74.46
2019-03-29T10:00:29.045Z,72.27
2019-03-29T10:01:29.513Z,81.30
2019-03-29T10:02:29.513Z,71.53
2019-03-29T10:03:29.655Z,76.90
2019-03-29T10:04:29.905Z,65.43
2019-03-29T10:05:31.455Z,66.65
2019-03-29T10:06:30.218Z,83.98
2019-03-29T10:07:30.410Z,65.92
2019-03-29T10:08:30.572Z,62.01
2019-03-29T10:09:30.793Z,63.72
2019-03-29T10:10:34.200Z,64.45
2019-03-29T10:11:31.172Z,64.94
2019-03-29T10:12:42.692Z,63.96
2019-03-29T10:13:31.425Z,73.97
2019-03-29T10:14:33.471Z,71.04
2019-03-29T10:15:31.944Z,67.38
2019-03-29T10:16:31.956Z,68.60
2019-03-29T10:17:32.134Z,62.26
2019-03-29T10:18:32.315Z,87.40
2019-03-29T10:19:32.483Z,64.21
2019-03-29T10:20:32.982Z,62.99
2019-03-29T10:21:34.300Z,60.06
2019-03-29T10:22:33.178Z,64.70
2019-03-29T10:23:33.399Z,67.14
2019-03-29T10:24:33.430Z,66.41
2019-03-29T10:25:34.316Z,60.55
2019-03-29T10:26:34.884Z,63.48
2019-03-29T10:27:34.155Z,62.74
2019-03-29T10:28:34.249Z,61.04
2019-03-29T10:29:34.431Z,68.60
2019-03-29T10:30:34.611Z,66.16
2019-03-29T10:31:34.881Z,67.14
2019-03-29T10:32:34.952Z,64.45
2019-03-29T10:33:35.136Z,62.99
2019-03-29T10:34:37.519Z,60.06
2019-03-29T10:35:50.328Z,63.23
2019-03-29T10:36:35.748Z,62.99
2019-03-29T10:37:35.949Z,63.23
2019-03-29T10:38:36.100Z,72.02
2019-03-29T10:39:36.285Z,64.94
2019-03-29T10:40:36.470Z,67.63
2019-03-29T10:41:38.031Z,62.99
2019-03-29T10:42:39.777Z,63.48
2019-03-29T10:43:37.009Z,66.65
2019-03-29T10:44:37.194Z,61.28
2019-03-29T10:45:40.353Z,68.36
2019-03-29T10:46:37.561Z,62.50
2019-03-29T10:47:43.772Z,58.84
2019-03-29T10:48:37.923Z,69.09
2019-03-29T10:49:38.101Z,65.67
2019-03-29T10:50:38.900Z,64.21
2019-03-29T10:51:38.444Z,60.30
2019-03-29T10:52:38.636Z,62.50
2019-03-29T10:53:38.822Z,66.41
2019-03-29T10:54:38.994Z,61.77
2019-03-29T10:55:39.176Z,70.80
2019-03-29T10:56:39.362Z,66.89
2019-03-29T10:57:39.553Z,64.21
2019-03-29T10:58:39.731Z,64.70
2019-03-29T10:59:39.910Z,68.36
2019-03-29T11:00:40.153Z,70.80
2019-03-29T11:01:40.415Z,82.76
2019-03-29T11:02:40.609Z,83.74
2019-03-29T11:03:41.403Z,82.03
2019-03-29T11:04:41.041Z,84.23
2019-03-29T11:05:41.190Z,83.25
2019-03-29T11:06:41.341Z,82.52
2019-03-29T11:07:41.527Z,63.96
2019-03-29T11:08:43.554Z,62.50
2019-03-29T11:09:42.005Z,64.45
2019-03-29T11:10:42.258Z,61.04
2019-03-29T11:11:42.235Z,61.04
2019-03-29T11:12:42.430Z,64.94
2019-03-29T11:13:42.602Z,65.67
2019-03-29T11:14:42.792Z,63.72
2019-03-29T11:15:42.973Z,70.07
2019-03-29T11:16:43.162Z,64.45
2019-03-29T11:17:43.343Z,65.19
2019-03-29T11:18:45.749Z,67.63
2019-03-29T11:19:43.709Z,60.79
2019-03-29T11:20:43.904Z,63.48
2019-03-29T11:21:44.079Z,61.28
2019-03-29T11:22:44.264Z,61.28
2019-03-29T11:23:44.445Z,61.52
2019-03-29T11:24:44.632Z,62.50
2019-03-29T11:25:48.268Z,61.77
2019-03-29T11:26:44.998Z,64.70
2019-03-29T11:27:45.179Z,63.23
2019-03-29T11:28:45.361Z,62.01
2019-03-29T11:29:45.540Z,72.75
2019-03-29T11:30:45.729Z,72.27
2019-03-29T11:31:45.919Z,62.01
2019-03-29T11:32:46.095Z,63.23
2019-03-29T11:33:46.280Z,69.34
2019-03-29T11:34:46.463Z,64.45
2019-03-29T11:35:46.646Z,63.48
2019-03-29T11:36:46.840Z,63.96
2019-03-29T11:37:47.035Z,60.30
2019-03-29T11:38:47.188Z,61.52
2019-03-29T11:39:47.364Z,65.19
2019-03-29T11:40:47.562Z,62.26
2019-03-29T11:41:47.736Z,62.01
2019-03-29T11:42:47.928Z,64.45
2019-03-29T11:43:48.102Z,61.28
2019-03-29T11:44:48.540Z,62.01
2019-03-29T11:45:48.589Z,69.09
2019-03-29T11:46:48.633Z,68.60
2019-03-29T11:47:49.419Z,73.00
2019-03-29T11:48:49.745Z,65.43
2019-03-29T11:49:52.865Z,65.43
2019-03-29T11:50:49.421Z,80.32
2019-03-29T11:51:49.693Z,84.96
2019-03-29T11:52:49.770Z,81.30
2019-03-29T11:53:51.444Z,82.28
2019-03-29T11:54:50.127Z,82.03
2019-03-29T11:55:50.300Z,83.01
2019-03-29T11:56:50.489Z,83.01
2019-03-29T11:57:50.666Z,81.30
2019-03-29T11:58:52.150Z,81.54
2019-03-29T11:59:51.022Z,83.25
2019-03-29T12:00:51.199Z,81.30
2019-03-29T12:01:51.382Z,72.75
2019-03-29T12:02:51.572Z,75.20
2019-03-29T12:03:51.743Z,67.63
2019-03-29T12:04:51.923Z,78.37
2019-03-29T12:05:52.104Z,68.12
2019-03-29T12:06:52.284Z,69.82
2019-03-29T12:07:52.474Z,70.07
2019-03-29T12:08:52.643Z,65.67
2019-03-29T12:09:52.849Z,69.09
2019-03-29T12:10:53.011Z,63.23
2019-03-29T12:11:53.193Z,64.21
2019-03-29T12:12:53.376Z,65.67
2019-03-29T12:13:53.556Z,61.52
2019-03-29T12:14:53.740Z,60.30
2019-03-29T12:15:53.907Z,70.07
2019-03-29T12:16:54.081Z,63.72
2019-03-29T12:17:54.265Z,61.77
2019-03-29T12:18:54.446Z,59.08
2019-03-29T12:19:54.627Z,61.04
2019-03-29T12:20:54.822Z,74.22
2019-03-29T12:21:54.986Z,65.19
2019-03-29T12:22:55.168Z,73.73
2019-03-29T12:23:55.357Z,64.70
2019-03-29T12:24:55.536Z,67.14
2019-03-29T12:25:55.709Z,62.74
2019-03-29T12:26:55.902Z,70.07
2019-03-29T12:27:56.075Z,64.70
2019-03-29T12:28:56.247Z,73.73
2019-03-29T12:29:56.428Z,72.27
2019-03-29T12:30:56.607Z,71.53
2019-03-29T12:31:56.794Z,67.38
2019-03-29T12:32:56.967Z,65.19
2019-03-29T12:33:57.151Z,63.48
2019-03-29T12:34:57.330Z,68.85
2019-03-29T12:35:57.506Z,72.75
2019-03-29T12:36:57.684Z,63.23
2019-03-29T12:37:57.964Z,63.96
2019-03-29T12:38:58.167Z,64.94
2019-03-29T12:39:58.995Z,64.21
2019-03-29T12:40:58.958Z,63.48
2019-03-29T12:41:58.634Z,64.94
2019-03-29T12:42:59.440Z,64.45
2019-03-29T12:43:58.996Z,66.65
2019-03-29T12:44:59.169Z,70.80
2019-03-29T12:45:59.934Z,65.92
2019-03-29T12:46:59.488Z,76.17
2019-03-29T12:47:59.667Z,67.87
2019-03-29T12:48:59.848Z,73.97
2019-03-29T12:50:00.026Z,73.97
2019-03-29T12:51:00.208Z,63.72
2019-03-29T12:52:00.399Z,70.31
2019-03-29T12:53:00.579Z,59.81
2019-03-29T12:54:00.771Z,65.67
2019-03-29T12:55:00.937Z,62.50
2019-03-29T12:56:01.111Z,69.09
2019-03-29T12:57:01.292Z,62.26
2019-03-29T12:58:02.434Z,61.04
2019-03-29T12:59:01.618Z,63.48
2019-03-29T13:00:01.800Z,73.24